Terminal Aerodrome Forecast
Issued by NWS Charleston, WV

Current Version | Previous Version | Text Only | Print | Product List | Glossary Off
Versions: 1 2 3 4 5 6 7 8 9 10 11 12 13 14 15 16 17 18 19 20 21

000
FTUS41 KRLX 240905 AAA
TAFPKB
TAF AMD
KPKB 240905Z 2409/2506 00000KT 6SM BR SKC
     FM241100 00000KT 3SM BR FEW045
     FM241200 00000KT P6SM FEW045
     FM241600 26006KT P6SM FEW045=

USA.gov is the U.S. government's official web portal to all federal, state and local government web resources and services.